Time;durP1;ratioP1;P1;durP2;ratioP2;P2;SDS_P1;SDS_P2;PMS_P1;PMS_P2;Temp;Humidity;BMP_temperature;BMP_pressure;BME280_temperature;BME280_humidity;BME280_pressure;Samples;Min_cycle;Max_cycle;Signal;HPM_P1;HPM_P2
2022/08/11 00:00:09;;;;;;;7.15;1.08;;;;;;;18.25;81.47;99036.56;15269163;19;20455;-63
2022/08/11 00:05:22;;;;;;;2.38;1.00;;;;;;;18.18;83.85;99039.22;15273664;19;20497;-63
2022/08/11 00:10:32;;;;;;;2.55;0.98;;;;;;;18.12;84.37;99043.56;15280015;19;20010;-63
2022/08/11 00:15:42;;;;;;;3.55;0.98;;;;;;;18.06;85.37;99035.34;15276688;19;20017;-66
2022/08/11 00:20:48;;;;;;;3.15;1.10;;;;;;;17.93;88.53;99041.47;15279097;19;20039;-63
2022/08/11 00:25:56;;;;;;;2.50;1.00;;;;;;;17.81;90.65;99036.53;15277456;19;20356;-63
2022/08/11 00:31:06;;;;;;;6.15;1.13;;;;;;;17.78;90.71;99036.91;15276184;19;20018;-63
2022/08/11 00:36:14;;;;;;;3.20;1.10;;;;;;;17.69;92.61;99032.63;15266929;19;20022;-63
2022/08/11 00:41:36;;;;;;;1.73;0.90;;;;;;;17.64;94.20;99035.06;15277778;19;20463;-63
2022/08/11 00:46:54;;;;;;;1.33;0.90;;;;;;;17.58;94.41;99044.84;15279215;19;20013;-63
2022/08/11 00:52:13;;;;;;;5.55;1.00;;;;;;;17.48;98.94;99041.59;15277123;19;20010;-63
2022/08/11 00:57:55;;;;;;;3.28;1.00;;;;;;;17.38;98.42;99039.16;15279456;19;20399;-63
2022/08/11 01:03:19;;;;;;;1.38;0.93;;;;;;;17.36;97.91;99046.66;15269333;19;21399;-64
2022/08/11 01:08:57;;;;;;;2.05;0.80;;;;;;;17.32;99.00;99038.03;15268048;19;20315;-63
2022/08/11 01:14:36;;;;;;;4.68;1.20;;;;;;;17.25;100.00;99043.41;15274205;19;20022;-63
2022/08/11 01:20:20;;;;;;;3.58;1.00;;;;;;;17.20;100.00;99045.88;15277358;19;20014;-63
2022/08/11 01:26:29;;;;;;;2.88;1.00;;;;;;;17.10;100.00;99048.03;15275471;19;20046;-63
2022/08/11 01:32:15;;;;;;;2.97;1.00;;;;;;;17.02;100.00;99043.53;15274987;19;20038;-63
2022/08/11 01:38:00;;;;;;;3.75;1.13;;;;;;;16.92;100.00;99043.75;15271350;19;20034;-63
2022/08/11 01:49:11;;;;;;;4.47;1.02;;;;;;;16.77;100.00;99051.06;15292591;19;20038;-63
2022/08/11 01:54:47;;;;;;;5.03;1.17;;;;;;;16.73;100.00;99045.16;15287060;19;20135;-65
2022/08/11 02:00:02;;;;;;;5.43;1.10;;;;;;;16.69;100.00;99043.00;15289998;19;20017;-66
2022/08/11 02:05:42;;;;;;;6.05;1.27;;;;;;;16.63;100.00;99045.44;15287530;19;20031;-63
2022/08/11 02:16:41;;;;;;;3.33;1.00;;;;;;;16.48;100.00;99041.84;15279969;19;20014;-63
2022/08/11 02:27:22;;;;;;;5.03;1.10;;;;;;;16.24;100.00;99040.16;15290420;19;20439;-63
2022/08/11 02:38:02;;;;;;;1.92;1.08;;;;;;;16.08;100.00;99041.16;15287105;19;20036;-63
2022/08/11 02:43:21;;;;;;;3.38;1.10;;;;;;;15.97;100.00;99047.88;15276891;19;20010;-63
2022/08/11 02:54:13;;;;;;;2.67;1.30;;;;;;;15.86;100.00;99043.69;15281167;19;20014;-63
2022/08/11 03:05:06;;;;;;;1.90;1.20;;;;;;;15.71;100.00;99040.88;15278457;19;20006;-68
2022/08/11 03:10:16;;;;;;;4.03;1.27;;;;;;;15.65;100.00;99044.28;15282558;19;20034;-65
2022/08/11 03:20:55;;;;;;;3.80;1.23;;;;;;;15.55;100.00;99041.81;15278674;19;20358;-65
2022/08/11 03:26:07;;;;;;;2.92;1.20;;;;;;;15.51;100.00;99056.75;15279524;19;20015;-65
2022/08/11 03:31:25;;;;;;;3.97;1.30;;;;;;;15.41;100.00;99046.97;15280429;19;20463;-63
2022/08/11 03:36:55;;;;;;;6.93;1.35;;;;;;;15.37;100.00;99055.66;15256270;19;20026;-65
2022/08/11 03:42:29;;;;;;;3.42;1.40;;;;;;;15.32;100.00;99053.47;15278190;19;20110;-65
2022/08/11 03:48:10;;;;;;;3.67;1.35;;;;;;;15.28;100.00;99052.13;15277536;19;20023;-65
2022/08/11 03:53:21;;;;;;;2.75;1.23;;;;;;;15.24;100.00;99054.34;15278364;19;20019;-65
2022/08/11 03:59:09;;;;;;;2.15;1.40;;;;;;;15.23;100.00;99055.38;15283325;19;20366;-65
2022/08/11 04:04:47;;;;;;;5.78;1.40;;;;;;;15.18;100.00;99057.75;15278531;19;20023;-65
2022/08/11 04:10:43;;;;;;;6.07;1.38;;;;;;;15.15;100.00;99054.53;15275088;19;20042;-65
2022/08/11 04:16:31;;;;;;;2.05;1.30;;;;;;;15.08;100.00;99062.53;15270647;19;20031;-65
2022/08/11 04:21:59;;;;;;;1.48;1.30;;;;;;;15.02;100.00;99057.81;15268541;19;20010;-66
2022/08/11 04:27:29;;;;;;;2.65;1.27;;;;;;;14.98;100.00;99072.75;15281287;19;20043;-66
2022/08/11 04:33:11;;;;;;;4.07;1.30;;;;;;;14.96;100.00;99059.38;15279596;19;20538;-65
2022/08/11 04:38:36;;;;;;;3.70;1.30;;;;;;;14.93;100.00;99070.56;15277536;19;20031;-63
2022/08/11 04:44:23;;;;;;;2.92;1.50;;;;;;;14.93;100.00;99054.28;15276969;19;20035;-65
2022/08/11 05:07:21;;;;;;;2.00;1.10;;;;;;;14.94;100.00;99064.13;15278686;19;20359;-66
2022/08/11 05:12:42;;;;;;;5.45;1.25;;;;;;;15.01;100.00;99066.97;15273036;19;20022;-65
2022/08/11 06:01:12;;;;;;;5.50;1.48;;;;;;;15.83;100.00;99077.47;15276700;19;20022;-63
2022/08/11 06:06:17;;;;;;;3.75;1.40;;;;;;;15.93;100.00;99084.56;15280403;19;20003;-64
2022/08/11 06:11:26;;;;;;;3.28;1.30;;;;;;;16.01;100.00;99090.81;15282987;19;20031;-66
2022/08/11 06:16:55;;;;;;;2.30;1.25;;;;;;;16.17;100.00;99095.28;15287358;19;20042;-65
2022/08/11 06:22:01;;;;;;;5.75;1.38;;;;;;;16.31;100.00;99085.47;15283288;19;20066;-64
2022/08/11 06:27:07;;;;;;;5.45;1.67;;;;;;;16.45;100.00;99092.00;15276714;19;20011;-62
2022/08/11 06:32:21;;;;;;;4.22;1.30;;;;;;;16.60;100.00;99088.47;15275822;19;20014;-63
2022/08/11 06:37:37;;;;;;;5.40;1.20;;;;;;;16.76;100.00;99092.91;15285987;19;20014;-64
2022/08/11 06:42:51;;;;;;;4.82;1.60;;;;;;;16.92;100.00;99098.19;15282571;19;20373;-63
2022/08/11 06:48:02;;;;;;;8.23;1.50;;;;;;;17.10;100.00;99099.75;15286056;19;20022;-62
2022/08/11 06:53:09;;;;;;;4.28;1.40;;;;;;;17.34;100.00;99089.63;15281084;19;20010;-61
2022/08/11 07:03:44;;;;;;;5.53;1.33;;;;;;;17.79;100.00;99093.13;15276507;19;20018;-61
2022/08/11 07:31:00;;;;;;;4.20;1.05;;;;;;;19.23;100.00;99094.00;15276878;19;20053;-62
2022/08/11 07:36:12;;;;;;;3.67;1.10;;;;;;;19.56;100.00;99092.50;15275400;19;20025;-62
2022/08/11 07:41:20;;;;;;;2.25;1.00;;;;;;;19.97;96.14;99083.41;15282180;19;20516;-61
2022/08/11 08:18:46;;;;;;;2.40;0.93;;;;;;;22.10;77.81;99079.72;15278304;19;19922;-65
2022/08/11 08:23:55;;;;;;;3.25;0.90;;;;;;;22.56;72.46;99087.88;15277190;19;20058;-63
2022/08/11 08:34:22;;;;;;;1.58;0.80;;;;;;;23.08;64.97;99077.50;15274921;19;20015;-63
2022/08/11 08:39:33;;;;;;;4.15;0.80;;;;;;;23.46;61.25;99069.28;15272610;19;20010;-65
2022/08/11 08:44:43;;;;;;;3.38;0.80;;;;;;;23.73;59.95;99064.28;15274107;19;20043;-63
2022/08/11 08:49:51;;;;;;;3.70;0.90;;;;;;;24.02;58.41;99063.72;15278956;19;20018;-64
2022/08/11 08:55:05;;;;;;;1.70;0.70;;;;;;;24.22;55.89;99067.00;15272598;19;20020;-65
2022/08/11 09:00:12;;;;;;;7.97;0.80;;;;;;;24.47;54.14;99064.06;15277244;19;20341;-66
2022/08/11 09:05:24;;;;;;;1.75;0.70;;;;;;;24.73;52.95;99053.72;15265514;19;20043;-65
2022/08/11 09:10:36;;;;;;;2.20;0.80;;;;;;;24.97;48.24;99050.94;15267475;19;20010;-66
2022/08/11 09:15:43;;;;;;;3.90;0.80;;;;;;;25.18;48.84;99056.91;15273254;19;20058;-65
2022/08/11 09:20:49;;;;;;;1.40;0.60;;;;;;;25.33;49.12;99045.41;15275810;19;20030;-65
2022/08/11 09:31:18;;;;;;;1.75;0.70;;;;;;;25.69;46.98;99044.25;15277304;19;20483;-66
2022/08/11 09:41:47;;;;;;;4.55;0.80;;;;;;;25.98;46.56;99029.59;15270560;19;20090;-64
2022/08/11 09:47:14;;;;;;;7.03;0.77;;;;;;;25.99;45.22;99028.53;15267315;19;20011;-64
2022/08/11 09:52:20;;;;;;;2.95;0.70;;;;;;;26.03;44.26;99026.09;15275279;19;20455;-64
2022/08/11 10:02:48;;;;;;;1.90;0.60;;;;;;;26.36;44.80;99022.56;15272930;19;20017;-63
2022/08/11 10:07:58;;;;;;;1.83;0.70;;;;;;;26.32;44.27;99024.16;15287668;19;20012;-64
2022/08/11 10:13:27;;;;;;;2.63;0.90;;;;;;;26.37;44.17;99021.50;15279181;19;20014;-64
2022/08/11 10:18:54;;;;;;;3.25;0.77;;;;;;;26.38;43.40;99009.34;15281386;19;20043;-60
2022/08/11 10:34:51;;;;;;;2.45;0.70;;;;;;;25.94;43.40;98993.38;15281826;19;20516;-63
2022/08/11 10:40:03;;;;;;;4.18;0.60;;;;;;;26.23;43.35;98998.03;15285528;19;20114;-65
2022/08/11 11:01:34;;;;;;;4.90;0.68;;;;;;;26.82;41.30;98974.66;15284575;19;20022;-63
2022/08/11 11:06:52;;;;;;;1.48;0.60;;;;;;;26.88;41.02;98963.41;15278683;19;21379;-63
2022/08/11 11:22:51;;;;;;;1.30;0.60;;;;;;;27.33;40.57;98966.19;15274547;19;20010;-66
2022/08/11 11:28:20;;;;;;;2.88;0.60;;;;;;;27.31;40.43;98955.38;15285025;19;20014;-65
2022/08/11 11:33:43;;;;;;;1.77;0.50;;;;;;;27.45;39.02;98955.03;15278464;19;20018;-64
2022/08/11 11:39:10;;;;;;;1.83;0.63;;;;;;;27.64;38.56;98945.25;15280529;19;20019;-63
2022/08/11 11:44:21;;;;;;;2.47;0.68;;;;;;;27.76;38.32;98938.72;15278113;19;20010;-65
2022/08/11 11:49:47;;;;;;;2.60;0.70;;;;;;;28.04;37.58;98940.38;15275288;19;20050;-66
2022/08/11 11:54:57;;;;;;;2.95;0.57;;;;;;;28.19;38.61;98945.22;15274911;19;20018;-65
2022/08/11 12:05:23;;;;;;;3.85;0.70;;;;;;;28.44;37.74;98935.44;15277617;19;20467;-64
2022/08/11 12:10:29;;;;;;;3.65;0.65;;;;;;;28.74;37.48;98926.50;15280522;19;20025;-64
2022/08/11 12:15:37;;;;;;;3.22;0.65;;;;;;;28.90;36.69;98921.88;15276077;19;20019;-62
2022/08/11 12:21:06;;;;;;;2.05;0.60;;;;;;;28.93;35.92;98912.16;15276872;19;20044;-65
2022/08/11 12:31:46;;;;;;;2.15;0.60;;;;;;;29.22;36.11;98906.19;15275679;19;20018;-65
2022/08/11 12:36:59;;;;;;;3.75;0.57;;;;;;;29.43;36.42;98893.22;15281565;19;20025;-65
2022/08/11 12:51:55;;;;;;;4.95;0.60;;;;;;;29.65;35.42;98894.94;15275811;19;20014;-64
2022/08/11 12:53:30;;;;;;;5.07;0.80;;;;;;;29.43;34.23;98879.34;15209496;19;20488;-67
2022/08/11 12:58:36;;;;;;;6.50;0.70;;;;;;;29.60;34.18;98856.03;15273363;19;20304;-66
2022/08/11 13:09:14;;;;;;;4.65;0.70;;;;;;;30.22;33.62;98858.81;15278504;19;20022;-64
2022/08/11 13:14:20;;;;;;;2.75;0.60;;;;;;;30.52;34.31;98868.22;15275218;19;20945;-63
2022/08/11 13:19:27;;;;;;;6.28;0.60;;;;;;;30.78;33.73;98863.44;15273986;19;20665;-62
2022/08/11 13:24:35;;;;;;;1.50;0.60;;;;;;;30.94;32.76;98850.28;15269887;19;20026;-64
2022/08/11 13:29:45;;;;;;;5.15;0.80;;;;;;;30.81;32.39;98853.66;15269858;19;20018;-65
2022/08/11 13:34:52;;;;;;;5.85;0.77;;;;;;;30.77;32.42;98849.78;15273967;19;20022;-60
2022/08/11 13:40:01;;;;;;;3.47;0.60;;;;;;;30.92;31.73;98846.13;15280786;19;20006;-64
2022/08/11 13:45:08;;;;;;;2.25;0.57;;;;;;;31.18;31.66;98838.50;15287274;19;20027;-61
2022/08/11 13:50:17;;;;;;;4.20;0.52;;;;;;;31.10;31.28;98834.31;15289167;19;20013;-63
2022/08/11 13:55:27;;;;;;;3.05;0.68;;;;;;;31.28;30.43;98818.94;15283351;19;20028;-65
2022/08/11 14:00:56;;;;;;;3.58;0.50;;;;;;;31.57;30.93;98823.75;15280427;19;20382;-64
2022/08/11 14:06:05;;;;;;;5.53;0.68;;;;;;;31.81;30.85;98820.25;15283410;19;20006;-66
2022/08/11 14:16:55;;;;;;;3.17;0.57;;;;;;;32.47;29.12;98803.13;15284083;19;20011;-66
2022/08/11 14:22:10;;;;;;;5.93;0.65;;;;;;;32.87;28.82;98807.38;15285559;19;20019;-65
2022/08/11 14:27:29;;;;;;;6.82;0.60;;;;;;;32.55;29.30;98800.50;15282215;19;20148;-66
2022/08/11 14:32:55;;;;;;;2.35;0.60;;;;;;;32.77;29.14;98793.53;15278445;19;20029;-66
2022/08/11 14:38:03;;;;;;;7.10;0.80;;;;;;;33.01;29.19;98790.72;15282955;19;20025;-68
2022/08/11 14:48:51;;;;;;;5.72;0.70;;;;;;;33.38;28.48;98782.66;15287145;19;20028;-67
2022/08/11 14:56:34;;;;;;;5.95;0.60;;;;;;;33.50;28.10;98785.81;15279738;19;20015;-67
2022/08/11 14:59:26;;;;;;;2.60;0.55;;;;;;;33.62;27.15;98776.97;15228336;19;20468;-67
2022/08/11 15:04:32;;;;;;;3.17;0.70;;;;;;;33.77;27.11;98783.38;15273376;19;20018;-67
2022/08/11 15:09:42;;;;;;;4.78;0.52;;;;;;;33.76;27.40;98771.41;15281287;19;20035;-67
2022/08/11 15:25:54;;;;;;;8.32;0.80;;;;;;;33.38;27.43;98754.72;15280705;19;20024;-67
2022/08/11 15:47:07;;;;;;;2.38;0.40;;;;;;;34.08;27.34;98743.72;15279679;19;20805;-67
2022/08/11 15:52:15;;;;;;;;;;;;;;;33.93;26.48;98744.84;15280759;19;20496;-67
2022/08/11 16:08:10;;;;;;;3.45;0.70;;;;;;;33.79;27.24;98731.66;15270104;19;20011;-65
2022/08/11 16:18:45;;;;;;;3.72;0.50;;;;;;;33.34;27.31;98732.16;15279403;19;20085;-65
2022/08/11 16:24:00;;;;;;;1.77;0.60;;;;;;;33.29;27.89;98729.41;15277569;19;20018;-67
2022/08/11 16:29:07;;;;;;;3.10;0.80;;;;;;;33.14;28.47;98727.72;15278070;19;20002;-65
2022/08/11 16:39:32;;;;;;;2.85;0.70;;;;;;;32.70;29.15;98723.34;15274066;19;20027;-69
2022/08/11 16:50:00;;;;;;;1.92;0.70;;;;;;;32.28;29.00;98715.50;15272411;19;20018;-62
2022/08/11 16:55:06;;;;;;;1.63;0.57;;;;;;;32.45;29.01;98705.81;15271827;19;20011;-64
2022/08/11 17:00:14;;;;;;;3.10;0.70;;;;;;;32.63;29.10;98708.94;15273833;19;20007;-65
2022/08/11 17:16:23;;;;;;;4.10;0.55;;;;;;;31.94;29.60;98708.06;15265369;19;20018;-64
2022/08/11 17:21:33;;;;;;;3.35;0.57;;;;;;;31.72;29.83;98707.78;15275824;19;20439;-65
2022/08/11 17:26:58;;;;;;;3.25;0.57;;;;;;;31.59;30.26;98710.09;15270582;19;20042;-65
2022/08/11 17:37:29;;;;;;;;;;;;;;;30.82;31.85;98700.38;15274751;19;20014;-66
2022/08/11 18:03:57;;;;;;;4.85;0.70;;;;;;;29.18;33.23;98719.16;15273523;19;20047;-60
